CheckWX is a tool to help pilots better visualize weather data.  It is not intended as a substitute for an official pre-flight weather briefing.

06:48:33 UTC

KJAC TAF
Jackson Hole Airport
Jackson, Wyoming, USA
KJAC 170544Z 1706/1806 VRB04KT P6SM BKN120 FM171900 21009KT P6SM VCTS SCT090CB AMD LTD TO CLD VIS AND WIND

Jun-17@
06:00 UTC

Jun-17 @ 06:00 UTC

Jun-17@
19:00 UTC

Jun-17 @ 19:00 UTC

KJAC 170544Z 1706/1806 VRB04KT P6SM BKN120
Wind
  • Variable at 4 KTS
Cloud Levels
  • Broken at 12,000' AGL

Jun-17@
19:00 UTC

Jun-17 @ 19:00 UTC

Jun-18@
06:00 UTC

Jun-18 @ 06:00 UTC

FM171900 21009KT P6SM VCTS SCT090CB AMD LTD TO CLD VIS AND WIND

From

From Standard forecast or significant change

Wind
  • 210° at 9 KTS
Conditions
Area Thunderstorm
Cloud Levels
  • Scattered at 9,000' AGL